Time;durP1;ratioP1;P1;durP2;ratioP2;P2;SDS_P1;SDS_P2;PMS_P1;PMS_P2;Temp;Humidity;BMP_temperature;BMP_pressure;BME280_temperature;BME280_humidity;BME280_pressure;Samples;Min_cycle;Max_cycle;Signal;HPM_P1;HPM_P2
2022/06/17 00:05:14;;;;;;;1.15;0.38;;;;;;;;;;20818401;28;20264;-69
2022/06/17 00:15:17;;;;;;;0.55;0.30;;;24.80;82.40;;;;;;20830988;28;20238;-69
2022/06/17 00:25:24;;;;;;;1.10;0.60;;;24.60;85.60;;;;;;20829616;28;20279;-69
2022/06/17 00:35:46;;;;;;;0.82;0.30;;;24.50;74.50;;;;;;20823408;28;20276;-69
2022/06/17 00:45:52;;;;;;;0.52;0.38;;;;;;;;;;20826944;28;20751;-69
2022/06/17 00:56:00;;;;;;;0.47;0.30;;;24.30;86.50;;;;;;20826051;28;20259;-69
2022/06/17 01:06:08;;;;;;;0.68;0.32;;;24.10;86.90;;;;;;20824643;28;20233;-69
2022/06/17 01:16:10;;;;;;;0.95;0.32;;;;;;;;;;20824676;28;20275;-69
2022/06/17 01:26:15;;;;;;;0.70;0.40;;;;;;;;;;20823886;28;20275;-69
2022/06/17 01:36:27;;;;;;;1.05;0.50;;;23.70;85.20;;;;;;20823695;28;20217;-69
2022/06/17 01:46:34;;;;;;;1.45;0.40;;;;;;;;;;20823983;28;20228;-69
2022/06/17 01:56:38;;;;;;;1.50;0.50;;;;;;;;;;20822213;28;20240;-69
2022/06/17 02:06:43;;;;;;;1.35;0.38;;;23.30;89.90;;;;;;20811869;28;20229;-69
2022/06/17 02:16:53;;;;;;;0.65;0.45;;;23.30;88.60;;;;;;20816386;28;20274;-69
2022/06/17 02:27:09;;;;;;;0.93;0.45;;;;;;;;;;20821814;28;20203;-69
2022/06/17 02:37:14;;;;;;;1.40;0.50;;;23.00;90.90;;;;;;20821124;28;20273;-68
2022/06/17 02:47:17;;;;;;;3.03;0.45;;;;;;;;;;20820660;28;20542;-68
2022/06/17 02:57:27;;;;;;;0.55;0.40;;;22.80;91.70;;;;;;20818704;28;20295;-68
2022/06/17 03:07:30;;;;;;;1.27;0.50;;;;;;;;;;20818260;28;20287;-69
2022/06/17 03:17:44;;;;;;;0.73;0.40;;;;;;;;;;20823510;28;20282;-69
2022/06/17 03:27:47;;;;;;;1.80;0.50;;;;;;;;;;20806462;28;20218;-69
2022/06/17 03:37:58;;;;;;;1.52;0.40;;;22.50;93.20;;;;;;20746009;28;20773;-68
2022/06/17 03:48:19;;;;;;;1.33;0.43;;;22.40;82.10;;;;;;20749235;28;20218;-69
2022/06/17 03:58:22;;;;;;;1.67;0.35;;;;;;;;;;20778137;28;20212;-69
2022/06/17 04:08:31;;;;;;;0.93;0.50;;;;;;;;;;20816076;28;20217;-69
2022/06/17 04:18:34;;;;;;;0.73;0.47;;;;;;;;;;20829448;28;20270;-70
2022/06/17 04:28:50;;;;;;;1.00;0.50;;;22.10;95.90;;;;;;20811220;28;20216;-70
2022/06/17 04:39:25;;;;;;;1.00;0.60;;;;;;;;;;20827016;28;20232;-71
2022/06/17 04:49:43;;;;;;;2.63;0.68;;;22.10;96.60;;;;;;20819825;28;20225;-69
2022/06/17 04:59:46;;;;;;;0.60;0.43;;;22.40;90.00;;;;;;20824607;28;20214;-69
2022/06/17 05:09:48;;;;;;;0.90;0.50;;;;;;;;;;20808008;28;20223;-69
2022/06/17 05:19:56;;;;;;;2.53;0.50;;;;;;;;;;20807547;28;20225;-69
2022/06/17 05:29:58;;;;;;;1.13;0.40;;;;;;;;;;20806556;28;20217;-69
2022/06/17 05:40:06;;;;;;;1.00;0.57;;;22.60;95.00;;;;;;20822943;28;20710;-69
2022/06/17 05:50:13;;;;;;;1.05;0.65;;;22.80;91.70;;;;;;20820420;28;20218;-69
2022/06/17 06:00:44;;;;;;;1.40;0.80;;;;;;;;;;20816459;28;20248;-69
2022/06/17 06:10:46;;;;;;;2.63;0.70;;;23.00;86.30;;;;;;20794232;28;20218;-69
2022/06/17 06:20:48;;;;;;;0.55;0.40;;;;;;;;;;20802106;28;20682;-68
2022/06/17 06:30:53;;;;;;;2.03;0.70;;;;;;;;;;20818596;28;20671;-68
2022/06/17 06:40:55;;;;;;;1.23;0.60;;;;;;;;;;20820122;28;20318;-68
2022/06/17 06:50:57;;;;;;;1.60;0.80;;;;;;;;;;20813912;28;20643;-69
2022/06/17 07:00:59;;;;;;;2.50;0.70;;;23.80;87.00;;;;;;20826980;28;20714;-69
2022/06/17 07:11:03;;;;;;;1.08;0.50;;;;;;;;;;20778848;28;20232;-69
2022/06/17 07:21:07;;;;;;;1.33;0.63;;;24.20;91.80;;;;;;20823944;28;20216;-69
2022/06/17 07:31:09;;;;;;;1.35;0.80;;;;;;;;;;20821029;28;20641;-69
2022/06/17 07:41:12;;;;;;;2.80;0.90;;;;;;;;;;20832407;28;20579;-69
2022/06/17 07:51:14;;;;;;;1.38;0.50;;;;;;;;;;20830709;28;20269;-69
2022/06/17 08:01:16;;;;;;;0.50;0.45;;;;;;;;;;20815315;28;20228;-69
2022/06/17 08:11:18;;;;;;;0.80;0.40;;;;;;;;;;20746839;28;20233;-69
2022/06/17 08:21:49;;;;;;;1.50;0.55;;;;;;;;;;20745301;28;20597;-69
2022/06/17 08:31:50;;;;;;;0.70;0.45;;;;;;;;;;20746369;28;20221;-69
2022/06/17 08:42:03;;;;;;;0.63;0.40;;;25.70;82.10;;;;;;20744073;28;20268;-69
2022/06/17 08:52:15;;;;;;;0.65;0.40;;;;;;;;;;20746227;28;20226;-69
2022/06/17 09:03:00;;;;;;;1.80;0.70;;;26.30;84.50;;;;;;20797521;28;20225;-69
2022/06/17 09:13:44;;;;;;;1.73;0.60;;;26.40;71.20;;;;;;20770920;28;20251;-68
2022/06/17 09:23:47;;;;;;;1.35;0.60;;;;;;;;;;20821929;28;20225;-68
2022/06/17 09:33:55;;;;;;;2.05;0.43;;;;;;;;;;20822302;28;20283;-68
2022/06/17 09:44:05;;;;;;;0.75;0.40;;;;;;;;;;20822045;28;20229;-68
2022/06/17 09:54:24;;;;;;;0.63;0.47;;;;;;;;;;20820433;28;20236;-71
2022/06/17 10:04:26;;;;;;;1.48;0.45;;;;;;;;;;20821612;28;20704;-71
2022/06/17 10:15:01;;;;;;;2.95;0.65;;;27.50;73.10;;;;;;20821645;28;20266;-71
2022/06/17 10:25:30;;;;;;;1.58;0.50;;;27.90;77.70;;;;;;20822298;28;20204;-70
2022/06/17 10:35:34;;;;;;;0.40;0.30;;;28.10;76.10;;;;;;20819441;28;20216;-71
2022/06/17 10:45:36;;;;;;;2.08;0.40;;;;;;;;;;20821349;28;20611;-71
2022/06/17 10:55:43;;;;;;;0.93;0.50;;;28.70;76.00;;;;;;20820339;28;20267;-70
2022/06/17 11:05:51;;;;;;;1.00;0.30;;;;;;;;;;20801516;28;20268;-71
2022/06/17 11:15:57;;;;;;;0.95;0.45;;;28.80;72.30;;;;;;20819204;28;20221;-71
2022/06/17 11:26:22;;;;;;;0.52;0.40;;;28.80;73.00;;;;;;20797679;28;20281;-72
2022/06/17 11:36:23;;;;;;;1.92;0.40;;;;;;;;;;20657151;28;20294;-72
2022/06/17 11:46:31;;;;;;;1.60;0.70;;;;;;;;;;20670788;28;20749;-71
2022/06/17 11:56:37;;;;;;;0.80;0.60;;;;;;;;;;20769357;28;20218;-71
2022/06/17 12:06:47;;;;;;;0.45;0.40;;;29.60;70.50;;;;;;20832080;28;20689;-71
2022/06/17 12:16:49;;;;;;;0.70;0.30;;;;;;;;;;20817125;28;20225;-71
2022/06/17 12:26:57;;;;;;;0.63;0.30;;;;;;;;;;20734555;28;20235;-71
2022/06/17 12:37:31;;;;;;;1.60;0.38;;;30.00;70.00;;;;;;20698297;28;20271;-72
2022/06/17 12:47:50;;;;;;;1.27;0.40;;;;;;;;;;20816784;28;20256;-72
2022/06/17 12:57:52;;;;;;;0.30;0.30;;;;;;;;;;20825112;28;20756;-70
2022/06/17 13:07:53;;;;;;;1.45;0.35;;;;;;;;;;20818566;28;20790;-68
2022/06/17 13:18:07;;;;;;;0.63;0.47;;;;;;;;;;20796298;28;20233;-68
2022/06/17 13:28:19;;;;;;;0.35;0.30;;;;;;;;;;20807535;28;20759;-69
2022/06/17 13:38:44;;;;;;;0.35;0.30;;;;;;;;;;20824251;28;20218;-69
2022/06/17 13:48:53;;;;;;;1.90;0.40;;;;;;;;;;20798090;28;20659;-68
2022/06/17 13:59:05;;;;;;;0.73;0.40;;;30.50;66.40;;;;;;20820681;28;20182;-69
2022/06/17 14:09:25;;;;;;;0.82;0.32;;;;;;;;;;20809875;28;20272;-69
2022/06/17 14:19:34;;;;;;;0.77;0.20;;;31.30;62.80;;;;;;20820579;28;20497;-70
2022/06/17 14:29:37;;;;;;;1.10;0.38;;;;;;;;;;20821709;28;20215;-70
2022/06/17 14:39:39;;;;;;;0.40;0.32;;;;;;;;;;20819839;28;20227;-70
2022/06/17 14:50:06;;;;;;;0.32;0.20;;;31.50;50.90;;;;;;20818187;28;20241;-70
2022/06/17 15:00:18;;;;;;;0.30;0.20;;;;;;;;;;20820409;28;20219;-69
2022/06/17 15:10:23;;;;;;;0.50;0.30;;;;;;;;;;20819847;23;20301;-71
2022/06/17 15:20:36;;;;;;;0.77;0.30;;;31.90;59.80;;;;;;20780810;28;20224;-71
2022/06/17 15:30:51;;;;;;;0.20;0.20;;;;;;;;;;20741312;28;20236;-74
2022/06/17 15:41:17;;;;;;;0.40;0.22;;;31.80;59.20;;;;;;20674951;28;20234;-73
2022/06/17 15:51:18;;;;;;;1.58;0.22;;;;;;;;;;20667583;28;20216;-73
2022/06/17 16:01:35;;;;;;;0.50;0.30;;;31.80;56.30;;;;;;20666446;28;20219;-73
2022/06/17 16:11:38;;;;;;;0.43;0.20;;;;;;;;;;20711152;28;20272;-73
2022/06/17 16:21:59;;;;;;;0.32;0.17;;;31.80;55.80;;;;;;20744205;28;20219;-73
2022/06/17 16:32:07;;;;;;;0.47;0.30;;;31.50;54.50;;;;;;20714480;28;20212;-72
2022/06/17 16:52:44;;;;;;;0.20;0.20;;;31.40;55.40;;;;;;20664065;28;20719;-73
2022/06/17 17:02:47;;;;;;;1.00;0.20;;;;;;;;;;20661440;28;20267;-72
2022/06/17 17:12:49;;;;;;;0.82;0.40;;;;;;;;;;20705614;28;20269;-72
2022/06/17 17:22:54;;;;;;;0.47;0.28;;;30.60;64.70;;;;;;20689011;28;20760;-73
2022/06/17 17:32:56;;;;;;;0.50;0.20;;;;;;;;;;20700768;28;20215;-74
2022/06/17 17:42:58;;;;;;;0.30;0.20;;;;;;;;;;20721850;28;20207;-74
2022/06/17 17:53:00;;;;;;;0.70;0.20;;;;;;;;;;20726633;28;20278;-74
2022/06/17 18:03:04;;;;;;;0.10;0.10;;;;;;;;;;20664517;28;20586;-73
2022/06/17 18:13:09;;;;;;;0.50;0.20;;;30.20;65.10;;;;;;20648869;28;20610;-73
2022/06/17 18:23:17;;;;;;;0.30;0.20;;;29.90;60.80;;;;;;20649568;28;20238;-74
2022/06/17 18:33:20;;;;;;;1.35;0.30;;;;;;;;;;20651238;28;20282;-73
2022/06/17 18:43:22;;;;;;;1.13;0.30;;;;;;;;;;20646516;28;20639;-71
2022/06/17 18:53:24;;;;;;;1.50;0.28;;;29.60;63.50;;;;;;20641773;28;20224;-73
2022/06/17 19:03:27;;;;;;;0.22;0.20;;;;;;;;;;20656804;28;20208;-72
2022/06/17 19:23:49;;;;;;;1.65;0.40;;;;;;;;;;20654587;28;20582;-73
2022/06/17 19:33:52;;;;;;;0.68;0.20;;;;;;;;;;20649812;28;20291;-72
2022/06/17 19:43:54;;;;;;;1.90;0.50;;;;;;;;;;20589930;28;20271;-72
2022/06/17 19:53:56;;;;;;;0.77;0.30;;;;;;;;;;20588659;28;20227;-72
2022/06/17 20:03:59;;;;;;;1.58;0.30;;;;;;;;;;20646800;28;20242;-72
2022/06/17 20:14:01;;;;;;;0.77;0.40;;;;;;;;;;20667087;28;20223;-72
2022/06/17 20:24:05;;;;;;;0.88;0.35;;;;;;;;;;20666294;28;20210;-72
2022/06/17 20:34:07;;;;;;;1.20;0.60;;;;;;;;;;20665069;28;20703;-72
2022/06/17 20:44:14;;;;;;;2.72;0.38;;;28.00;82.50;;;;;;20606368;28;20211;-72
2022/06/17 20:54:23;;;;;;;4.82;0.77;;;;;;;;;;20594490;28;20707;-72
2022/06/17 21:14:45;;;;;;;1.92;0.45;;;;;;;;;;20746644;22;20246;-71
2022/06/17 21:24:47;;;;;;;1.55;0.50;;;;;;;;;;20706021;28;20559;-72
2022/06/17 21:34:50;;;;;;;1.92;0.50;;;;;;;;;;20672413;28;20234;-71
2022/06/17 21:44:52;;;;;;;0.90;0.47;;;;;;;;;;20641663;28;20227;-72
2022/06/17 21:54:55;;;;;;;1.60;0.70;;;;;;;;;;20638306;28;20269;-72
2022/06/17 22:05:01;;;;;;;3.13;0.60;;;;;;;;;;20642341;28;20262;-73
2022/06/17 22:15:16;;;;;;;1.85;0.60;;;26.70;85.60;;;;;;20644958;28;20778;-72
2022/06/17 22:25:19;;;;;;;0.73;0.50;;;;;;;;;;20668959;28;20253;-72
2022/06/17 22:35:26;;;;;;;1.35;0.47;;;;;;;;;;20707684;28;20592;-71
2022/06/17 22:45:32;;;;;;;0.60;0.40;;;26.40;84.10;;;;;;20708732;28;20695;-71
2022/06/17 22:55:35;;;;;;;0.52;0.40;;;;;;;;;;20661806;28;20297;-72
2022/06/17 23:05:37;;;;;;;1.00;0.60;;;;;;;;;;20586275;28;20219;-72
2022/06/17 23:15:40;;;;;;;0.95;0.60;;;25.80;88.90;;;;;;20546022;28;20292;-72
2022/06/17 23:25:43;;;;;;;0.70;0.40;;;;;;;;;;20624362;28;20293;-72
2022/06/17 23:35:51;;;;;;;0.90;0.50;;;25.60;85.80;;;;;;20631606;28;20229;-72
2022/06/17 23:45:54;;;;;;;0.30;0.30;;;;;;;;;;20664600;28;20231;-72
2022/06/17 23:56:01;;;;;;;1.27;0.63;;;25.40;92.00;;;;;;20630213;28;20258;-72
